Davilla, TX (76523)

7:17 PM CDT on September 24, 2016 (GMT -0500)
Bryant Station | | Change Station

Elev 443 ft 30.86 °N, 97.20 °W | Updated 0 second ago

Scattered Clouds
Scattered Clouds
77.5 °F
Feels Like 79 °F
N
6.5
Wind Variable Wind from East
Gusts 7.4 mph

Today
High -- | Low -- °F
--% Chance of Precip.
Yesterday
High -- | Low -- °F
Precip. -- in
Pressure 29.91 in
Visibility 10.0 miles
Clouds Scattered Clouds 3100 ft
Scattered Clouds 3900 ft
Heat Index 79 °F
Dew Point 72 °F
Humidity 83%
Rainfall 0.00 in
Snow Depth Not available.
7:18 AM 7:22 PM
Waning Crescent, 33% visible
METAR KT35 242355Z AUTO 12005KT 10SM SCT031 SCT039 24/23 A2991 RMK AO2 LTG DSNT N AND S 60058 T02430227 10345 20242
Pressure 29.91 in
Visibility 10.0 miles
Clouds Scattered Clouds 3100 ft
Scattered Clouds 3900 ft
Heat Index 79 °F
Dew Point 72 °F
Humidity 83%
Rainfall 0.00 in
Snow Depth Not available.
7:18 AM 7:22 PM
Waning Crescent, 33% visible
METAR KT35 242355Z AUTO 12005KT 10SM SCT031 SCT039 24/23 A2991 RMK AO2 LTG DSNT N AND S 60058 T02430227 10345 20242

10-Day Weather Forecast

Almanac

Astronomy

Sep. 24, 2016 Rise Set
Actual Time
Civil Twilight
Nautical Twilight
Astronomical Twilight
Moon
Length of Visible Light
Length of Day
Tomorrow will be .
, % of the Moon is Illuminated

Today's Extremes

State Highs State Lows

Community

WunderPhotos

Upload Photos

1,941,477 photos uploaded!

WunderBlog® & News

Nearby

Air Quality

  Air Quality AQ Index Pollutant
Not available.

Snow Depth

Station Depth Elevation

Earthquake Activity

City Distance Mag. Time & Date
Minimum magnitude displayed is 2.5.

Coastal Water Temperatures

Place Temperature

Stations

Nearby Weather Stations

Station Location Temp. Windchill Dew Point Humidity Wind Precip. Elev Updated Type
                   

Watches & Warnings

There are currently no watches in effect.